sensor_id;sensor_type;location;lat;lon;timestamp;P1;durP1;ratioP1;P2;durP2;ratioP2
19209;SDS011;9738;51.654;14.238;2022-07-25T00:01:03;0.77;;;0.77;;
19209;SDS011;9738;51.654;14.238;2022-07-25T00:03:29;0.80;;;0.80;;
19209;SDS011;9738;51.654;14.238;2022-07-25T00:05:56;1.20;;;1.00;;
19209;SDS011;9738;51.654;14.238;2022-07-25T00:08:22;0.70;;;0.67;;
19209;SDS011;9738;51.654;14.238;2022-07-25T00:10:48;0.70;;;0.70;;
19209;SDS011;9738;51.654;14.238;2022-07-25T00:13:14;0.77;;;0.73;;
19209;SDS011;9738;51.654;14.238;2022-07-25T00:15:40;0.80;;;0.80;;
19209;SDS011;9738;51.654;14.238;2022-07-25T00:18:06;0.47;;;0.47;;
19209;SDS011;9738;51.654;14.238;2022-07-25T00:20:32;0.80;;;0.80;;
19209;SDS011;9738;51.654;14.238;2022-07-25T00:22:58;0.77;;;0.77;;
19209;SDS011;9738;51.654;14.238;2022-07-25T00:25:24;0.87;;;0.80;;
19209;SDS011;9738;51.654;14.238;2022-07-25T00:27:50;1.27;;;0.80;;
19209;SDS011;9738;51.654;14.238;2022-07-25T00:30:16;0.60;;;0.57;;
19209;SDS011;9738;51.654;14.238;2022-07-25T00:32:42;0.90;;;0.83;;
19209;SDS011;9738;51.654;14.238;2022-07-25T00:35:08;0.70;;;0.70;;
19209;SDS011;9738;51.654;14.238;2022-07-25T00:37:34;0.67;;;0.67;;
19209;SDS011;9738;51.654;14.238;2022-07-25T00:40:00;0.67;;;0.67;;
19209;SDS011;9738;51.654;14.238;2022-07-25T00:42:26;0.60;;;0.60;;
19209;SDS011;9738;51.654;14.238;2022-07-25T00:44:52;0.63;;;0.63;;
19209;SDS011;9738;51.654;14.238;2022-07-25T00:47:18;0.73;;;0.73;;
19209;SDS011;9738;51.654;14.238;2022-07-25T00:49:44;1.53;;;1.07;;
19209;SDS011;9738;51.654;14.238;2022-07-25T00:52:10;1.13;;;0.93;;
19209;SDS011;9738;51.654;14.238;2022-07-25T00:54:36;0.90;;;0.80;;
19209;SDS011;9738;51.654;14.238;2022-07-25T00:57:02;1.67;;;1.10;;
19209;SDS011;9738;51.654;14.238;2022-07-25T00:59:29;0.80;;;0.80;;
19209;SDS011;9738;51.654;14.238;2022-07-25T01:01:54;0.70;;;0.70;;
19209;SDS011;9738;51.654;14.238;2022-07-25T01:04:20;0.50;;;0.50;;
19209;SDS011;9738;51.654;14.238;2022-07-25T01:06:46;1.07;;;0.80;;
19209;SDS011;9738;51.654;14.238;2022-07-25T01:09:12;0.80;;;0.80;;
19209;SDS011;9738;51.654;14.238;2022-07-25T01:11:38;0.47;;;0.47;;
19209;SDS011;9738;51.654;14.238;2022-07-25T01:14:05;1.00;;;0.90;;
19209;SDS011;9738;51.654;14.238;2022-07-25T01:16:31;0.93;;;0.70;;
19209;SDS011;9738;51.654;14.238;2022-07-25T01:18:56;0.60;;;0.60;;
19209;SDS011;9738;51.654;14.238;2022-07-25T01:21:23;0.90;;;0.90;;
19209;SDS011;9738;51.654;14.238;2022-07-25T01:23:50;0.90;;;0.90;;
19209;SDS011;9738;51.654;14.238;2022-07-25T01:26:16;0.80;;;0.80;;
19209;SDS011;9738;51.654;14.238;2022-07-25T01:28:42;0.70;;;0.70;;
19209;SDS011;9738;51.654;14.238;2022-07-25T01:31:08;0.77;;;0.77;;
19209;SDS011;9738;51.654;14.238;2022-07-25T01:33:34;1.03;;;0.77;;
19209;SDS011;9738;51.654;14.238;2022-07-25T01:36:00;0.77;;;0.77;;
19209;SDS011;9738;51.654;14.238;2022-07-25T01:38:26;1.33;;;0.70;;
19209;SDS011;9738;51.654;14.238;2022-07-25T01:40:52;0.80;;;0.80;;
19209;SDS011;9738;51.654;14.238;2022-07-25T01:43:18;1.27;;;1.17;;
19209;SDS011;9738;51.654;14.238;2022-07-25T01:45:44;0.43;;;0.43;;
19209;SDS011;9738;51.654;14.238;2022-07-25T01:48:09;0.77;;;0.77;;
19209;SDS011;9738;51.654;14.238;2022-07-25T01:50:36;0.90;;;0.80;;
19209;SDS011;9738;51.654;14.238;2022-07-25T01:53:01;0.70;;;0.70;;
19209;SDS011;9738;51.654;14.238;2022-07-25T01:55:27;1.97;;;0.80;;
19209;SDS011;9738;51.654;14.238;2022-07-25T01:57:54;1.13;;;1.03;;
19209;SDS011;9738;51.654;14.238;2022-07-25T02:00:19;1.07;;;0.97;;
19209;SDS011;9738;51.654;14.238;2022-07-25T02:02:45;0.60;;;0.60;;
19209;SDS011;9738;51.654;14.238;2022-07-25T02:05:12;0.90;;;0.90;;
19209;SDS011;9738;51.654;14.238;2022-07-25T02:07:39;1.33;;;1.10;;
19209;SDS011;9738;51.654;14.238;2022-07-25T02:10:05;0.90;;;0.90;;
19209;SDS011;9738;51.654;14.238;2022-07-25T02:12:32;1.03;;;0.83;;
19209;SDS011;9738;51.654;14.238;2022-07-25T02:14:58;1.00;;;0.90;;
19209;SDS011;9738;51.654;14.238;2022-07-25T02:17:24;0.40;;;0.40;;
19209;SDS011;9738;51.654;14.238;2022-07-25T02:19:50;0.73;;;0.73;;
19209;SDS011;9738;51.654;14.238;2022-07-25T02:22:16;0.73;;;0.73;;
19209;SDS011;9738;51.654;14.238;2022-07-25T02:24:42;1.03;;;0.70;;
19209;SDS011;9738;51.654;14.238;2022-07-25T02:27:08;0.70;;;0.70;;
19209;SDS011;9738;51.654;14.238;2022-07-25T02:29:34;0.80;;;0.60;;
19209;SDS011;9738;51.654;14.238;2022-07-25T02:32:00;1.27;;;0.73;;
19209;SDS011;9738;51.654;14.238;2022-07-25T02:34:26;1.30;;;0.80;;
19209;SDS011;9738;51.654;14.238;2022-07-25T02:36:52;0.70;;;0.70;;
19209;SDS011;9738;51.654;14.238;2022-07-25T02:39:18;1.33;;;1.17;;
19209;SDS011;9738;51.654;14.238;2022-07-25T02:41:44;0.60;;;0.60;;
19209;SDS011;9738;51.654;14.238;2022-07-25T02:44:10;1.07;;;1.00;;
19209;SDS011;9738;51.654;14.238;2022-07-25T02:46:36;0.80;;;0.80;;
19209;SDS011;9738;51.654;14.238;2022-07-25T02:49:03;0.63;;;0.63;;
19209;SDS011;9738;51.654;14.238;2022-07-25T02:51:29;0.83;;;0.80;;
19209;SDS011;9738;51.654;14.238;2022-07-25T02:53:54;1.07;;;0.97;;
19209;SDS011;9738;51.654;14.238;2022-07-25T02:56:21;0.90;;;0.80;;
19209;SDS011;9738;51.654;14.238;2022-07-25T02:58:47;1.07;;;0.97;;
19209;SDS011;9738;51.654;14.238;2022-07-25T03:01:12;0.60;;;0.60;;
19209;SDS011;9738;51.654;14.238;2022-07-25T03:03:39;1.13;;;0.87;;
19209;SDS011;9738;51.654;14.238;2022-07-25T03:06:04;0.80;;;0.80;;
19209;SDS011;9738;51.654;14.238;2022-07-25T03:08:30;0.83;;;0.83;;
19209;SDS011;9738;51.654;14.238;2022-07-25T03:10:57;0.50;;;0.50;;
19209;SDS011;9738;51.654;14.238;2022-07-25T03:13:23;0.90;;;0.90;;
19209;SDS011;9738;51.654;14.238;2022-07-25T03:15:50;1.50;;;1.10;;
19209;SDS011;9738;51.654;14.238;2022-07-25T03:18:16;0.70;;;0.70;;
19209;SDS011;9738;51.654;14.238;2022-07-25T03:20:42;0.70;;;0.70;;
19209;SDS011;9738;51.654;14.238;2022-07-25T03:23:08;0.80;;;0.80;;
19209;SDS011;9738;51.654;14.238;2022-07-25T03:25:34;2.43;;;1.00;;
19209;SDS011;9738;51.654;14.238;2022-07-25T03:28:00;1.40;;;1.20;;
19209;SDS011;9738;51.654;14.238;2022-07-25T03:30:26;1.00;;;0.97;;
19209;SDS011;9738;51.654;14.238;2022-07-25T03:32:52;1.50;;;1.00;;
19209;SDS011;9738;51.654;14.238;2022-07-25T03:35:19;1.37;;;1.27;;
19209;SDS011;9738;51.654;14.238;2022-07-25T03:37:45;0.80;;;0.80;;
19209;SDS011;9738;51.654;14.238;2022-07-25T03:40:12;1.47;;;1.10;;
19209;SDS011;9738;51.654;14.238;2022-07-25T03:42:39;1.10;;;1.00;;
19209;SDS011;9738;51.654;14.238;2022-07-25T03:45:05;1.43;;;1.10;;
19209;SDS011;9738;51.654;14.238;2022-07-25T03:47:32;1.30;;;1.20;;
19209;SDS011;9738;51.654;14.238;2022-07-25T03:49:58;1.10;;;1.00;;
19209;SDS011;9738;51.654;14.238;2022-07-25T03:52:23;1.20;;;0.90;;
19209;SDS011;9738;51.654;14.238;2022-07-25T03:54:50;2.60;;;1.10;;
19209;SDS011;9738;51.654;14.238;2022-07-25T03:57:15;1.27;;;1.17;;
19209;SDS011;9738;51.654;14.238;2022-07-25T03:59:41;1.10;;;0.93;;
19209;SDS011;9738;51.654;14.238;2022-07-25T04:02:08;1.40;;;1.20;;
19209;SDS011;9738;51.654;14.238;2022-07-25T04:04:33;0.90;;;0.90;;
19209;SDS011;9738;51.654;14.238;2022-07-25T04:06:59;1.87;;;1.50;;
19209;SDS011;9738;51.654;14.238;2022-07-25T04:09:25;1.60;;;1.50;;
19209;SDS011;9738;51.654;14.238;2022-07-25T04:11:51;1.00;;;1.00;;
19209;SDS011;9738;51.654;14.238;2022-07-25T04:14:17;6.83;;;1.30;;
19209;SDS011;9738;51.654;14.238;2022-07-25T04:16:43;1.73;;;1.10;;
19209;SDS011;9738;51.654;14.238;2022-07-25T04:19:09;1.10;;;1.00;;
19209;SDS011;9738;51.654;14.238;2022-07-25T04:21:34;1.03;;;0.90;;
19209;SDS011;9738;51.654;14.238;2022-07-25T04:24:01;1.03;;;0.93;;
19209;SDS011;9738;51.654;14.238;2022-07-25T04:26:27;1.30;;;1.20;;
19209;SDS011;9738;51.654;14.238;2022-07-25T04:28:52;1.10;;;1.00;;
19209;SDS011;9738;51.654;14.238;2022-07-25T04:31:19;1.83;;;1.30;;
19209;SDS011;9738;51.654;14.238;2022-07-25T04:33:44;1.47;;;1.37;;
19209;SDS011;9738;51.654;14.238;2022-07-25T04:36:10;4.63;;;1.60;;
19209;SDS011;9738;51.654;14.238;2022-07-25T04:38:37;1.20;;;1.10;;
19209;SDS011;9738;51.654;14.238;2022-07-25T04:41:03;1.40;;;1.30;;
19209;SDS011;9738;51.654;14.238;2022-07-25T04:43:29;1.97;;;1.33;;
19209;SDS011;9738;51.654;14.238;2022-07-25T04:45:55;1.57;;;1.20;;
19209;SDS011;9738;51.654;14.238;2022-07-25T04:48:21;1.60;;;1.30;;
19209;SDS011;9738;51.654;14.238;2022-07-25T04:50:47;1.30;;;1.20;;
19209;SDS011;9738;51.654;14.238;2022-07-25T04:53:13;1.63;;;1.10;;
19209;SDS011;9738;51.654;14.238;2022-07-25T04:55:39;1.30;;;1.20;;
19209;SDS011;9738;51.654;14.238;2022-07-25T04:58:05;1.77;;;1.43;;
19209;SDS011;9738;51.654;14.238;2022-07-25T05:00:31;1.37;;;1.23;;
19209;SDS011;9738;51.654;14.238;2022-07-25T05:02:57;1.20;;;1.00;;
19209;SDS011;9738;51.654;14.238;2022-07-25T05:05:23;0.80;;;0.80;;
19209;SDS011;9738;51.654;14.238;2022-07-25T05:07:54;1.70;;;1.00;;
19209;SDS011;9738;51.654;14.238;2022-07-25T05:10:21;1.17;;;1.07;;
19209;SDS011;9738;51.654;14.238;2022-07-25T05:12:46;1.83;;;1.50;;
19209;SDS011;9738;51.654;14.238;2022-07-25T05:15:13;1.57;;;1.37;;
19209;SDS011;9738;51.654;14.238;2022-07-25T05:17:38;1.10;;;0.97;;
19209;SDS011;9738;51.654;14.238;2022-07-25T05:20:04;1.40;;;1.30;;
19209;SDS011;9738;51.654;14.238;2022-07-25T05:22:31;1.17;;;1.07;;
19209;SDS011;9738;51.654;14.238;2022-07-25T05:24:57;1.80;;;1.00;;
19209;SDS011;9738;51.654;14.238;2022-07-25T05:27:22;1.20;;;1.10;;
19209;SDS011;9738;51.654;14.238;2022-07-25T05:29:49;1.17;;;1.07;;
19209;SDS011;9738;51.654;14.238;2022-07-25T05:32:14;2.87;;;1.40;;
19209;SDS011;9738;51.654;14.238;2022-07-25T05:34:40;2.17;;;1.40;;
19209;SDS011;9738;51.654;14.238;2022-07-25T05:37:06;1.70;;;1.23;;
19209;SDS011;9738;51.654;14.238;2022-07-25T05:39:32;3.20;;;1.30;;
19209;SDS011;9738;51.654;14.238;2022-07-25T05:41:58;1.47;;;1.37;;
19209;SDS011;9738;51.654;14.238;2022-07-25T05:44:24;0.90;;;0.90;;
19209;SDS011;9738;51.654;14.238;2022-07-25T05:46:50;1.50;;;1.03;;
19209;SDS011;9738;51.654;14.238;2022-07-25T05:49:15;1.33;;;1.20;;
19209;SDS011;9738;51.654;14.238;2022-07-25T05:51:42;1.73;;;1.30;;
19209;SDS011;9738;51.654;14.238;2022-07-25T05:54:07;1.37;;;1.27;;
19209;SDS011;9738;51.654;14.238;2022-07-25T05:56:33;1.47;;;1.37;;
19209;SDS011;9738;51.654;14.238;2022-07-25T05:59:00;1.30;;;1.20;;
19209;SDS011;9738;51.654;14.238;2022-07-25T06:01:25;1.30;;;1.20;;
19209;SDS011;9738;51.654;14.238;2022-07-25T06:03:51;1.80;;;1.60;;
19209;SDS011;9738;51.654;14.238;2022-07-25T06:06:17;1.40;;;1.30;;
19209;SDS011;9738;51.654;14.238;2022-07-25T06:08:43;6.87;;;1.80;;
19209;SDS011;9738;51.654;14.238;2022-07-25T06:11:09;1.50;;;1.40;;
19209;SDS011;9738;51.654;14.238;2022-07-25T06:13:35;1.50;;;1.40;;
19209;SDS011;9738;51.654;14.238;2022-07-25T06:16:01;1.50;;;1.40;;
19209;SDS011;9738;51.654;14.238;2022-07-25T06:18:27;1.60;;;1.50;;
19209;SDS011;9738;51.654;14.238;2022-07-25T06:20:54;1.57;;;1.30;;
19209;SDS011;9738;51.654;14.238;2022-07-25T06:23:20;1.67;;;1.50;;
19209;SDS011;9738;51.654;14.238;2022-07-25T06:25:46;2.30;;;1.40;;
19209;SDS011;9738;51.654;14.238;2022-07-25T06:28:12;1.50;;;1.40;;
19209;SDS011;9738;51.654;14.238;2022-07-25T06:30:42;4.93;;;1.60;;
19209;SDS011;9738;51.654;14.238;2022-07-25T06:33:08;2.00;;;1.50;;
19209;SDS011;9738;51.654;14.238;2022-07-25T06:35:35;1.53;;;1.43;;
19209;SDS011;9738;51.654;14.238;2022-07-25T06:38:01;1.60;;;1.50;;
19209;SDS011;9738;51.654;14.238;2022-07-25T06:40:27;2.07;;;1.87;;
19209;SDS011;9738;51.654;14.238;2022-07-25T06:42:53;1.90;;;1.70;;
19209;SDS011;9738;51.654;14.238;2022-07-25T06:45:19;1.70;;;1.60;;
19209;SDS011;9738;51.654;14.238;2022-07-25T06:47:46;2.63;;;1.87;;
19209;SDS011;9738;51.654;14.238;2022-07-25T06:50:13;1.93;;;1.83;;
19209;SDS011;9738;51.654;14.238;2022-07-25T06:52:40;3.50;;;2.20;;
19209;SDS011;9738;51.654;14.238;2022-07-25T06:55:07;1.43;;;1.33;;
19209;SDS011;9738;51.654;14.238;2022-07-25T06:57:35;1.83;;;1.73;;
19209;SDS011;9738;51.654;14.238;2022-07-25T07:00:02;2.30;;;1.73;;
19209;SDS011;9738;51.654;14.238;2022-07-25T07:02:32;2.10;;;1.87;;
19209;SDS011;9738;51.654;14.238;2022-07-25T07:04:58;1.80;;;1.70;;
19209;SDS011;9738;51.654;14.238;2022-07-25T07:07:24;2.00;;;1.90;;
19209;SDS011;9738;51.654;14.238;2022-07-25T07:09:49;3.00;;;1.77;;
19209;SDS011;9738;51.654;14.238;2022-07-25T07:12:16;1.97;;;1.80;;
19209;SDS011;9738;51.654;14.238;2022-07-25T07:14:41;1.83;;;1.60;;
19209;SDS011;9738;51.654;14.238;2022-07-25T07:17:08;2.27;;;2.07;;
19209;SDS011;9738;51.654;14.238;2022-07-25T07:19:35;2.20;;;2.00;;
19209;SDS011;9738;51.654;14.238;2022-07-25T07:22:03;1.83;;;1.73;;
19209;SDS011;9738;51.654;14.238;2022-07-25T07:24:28;1.75;;;1.65;;
19209;SDS011;9738;51.654;14.238;2022-07-25T07:26:55;2.60;;;2.10;;
19209;SDS011;9738;51.654;14.238;2022-07-25T07:29:20;2.10;;;1.90;;
19209;SDS011;9738;51.654;14.238;2022-07-25T07:31:46;4.78;;;1.88;;
19209;SDS011;9738;51.654;14.238;2022-07-25T07:34:13;1.80;;;1.70;;
19209;SDS011;9738;51.654;14.238;2022-07-25T07:36:39;1.95;;;1.80;;
19209;SDS011;9738;51.654;14.238;2022-07-25T07:39:04;2.42;;;2.03;;
19209;SDS011;9738;51.654;14.238;2022-07-25T07:41:31;1.70;;;1.60;;
19209;SDS011;9738;51.654;14.238;2022-07-25T07:43:56;2.10;;;1.90;;
19209;SDS011;9738;51.654;14.238;2022-07-25T07:46:22;2.20;;;2.00;;
19209;SDS011;9738;51.654;14.238;2022-07-25T07:48:48;1.83;;;1.67;;
19209;SDS011;9738;51.654;14.238;2022-07-25T07:51:14;1.73;;;1.63;;
19209;SDS011;9738;51.654;14.238;2022-07-25T07:53:40;1.60;;;1.50;;
19209;SDS011;9738;51.654;14.238;2022-07-25T07:56:25;2.40;;;1.95;;
19209;SDS011;9738;51.654;14.238;2022-07-25T07:58:51;2.35;;;2.00;;
19209;SDS011;9738;51.654;14.238;2022-07-25T08:01:16;2.33;;;2.13;;
19209;SDS011;9738;51.654;14.238;2022-07-25T08:03:43;2.88;;;1.77;;
19209;SDS011;9738;51.654;14.238;2022-07-25T08:06:08;3.08;;;2.25;;
19209;SDS011;9738;51.654;14.238;2022-07-25T08:08:34;2.40;;;2.20;;
19209;SDS011;9738;51.654;14.238;2022-07-25T08:11:00;2.17;;;1.98;;
19209;SDS011;9738;51.654;14.238;2022-07-25T08:13:27;2.20;;;1.92;;
19209;SDS011;9738;51.654;14.238;2022-07-25T08:15:54;2.50;;;2.30;;
19209;SDS011;9738;51.654;14.238;2022-07-25T08:18:23;4.38;;;2.00;;
19209;SDS011;9738;51.654;14.238;2022-07-25T08:20:50;2.50;;;2.30;;
19209;SDS011;9738;51.654;14.238;2022-07-25T08:23:17;2.47;;;2.08;;
19209;SDS011;9738;51.654;14.238;2022-07-25T08:25:44;2.72;;;2.13;;
19209;SDS011;9738;51.654;14.238;2022-07-25T08:28:11;3.50;;;2.17;;
19209;SDS011;9738;51.654;14.238;2022-07-25T08:30:37;3.13;;;2.28;;
19209;SDS011;9738;51.654;14.238;2022-07-25T08:33:05;2.65;;;2.45;;
19209;SDS011;9738;51.654;14.238;2022-07-25T08:35:35;2.53;;;2.20;;
19209;SDS011;9738;51.654;14.238;2022-07-25T08:38:02;2.70;;;2.30;;
19209;SDS011;9738;51.654;14.238;2022-07-25T08:40:30;3.50;;;2.60;;
19209;SDS011;9738;51.654;14.238;2022-07-25T08:42:56;6.95;;;2.97;;
19209;SDS011;9738;51.654;14.238;2022-07-25T08:45:23;2.55;;;2.35;;
19209;SDS011;9738;51.654;14.238;2022-07-25T08:47:50;4.43;;;2.70;;
19209;SDS011;9738;51.654;14.238;2022-07-25T08:50:19;2.83;;;2.20;;
19209;SDS011;9738;51.654;14.238;2022-07-25T08:52:48;3.05;;;2.40;;
19209;SDS011;9738;51.654;14.238;2022-07-25T08:55:17;2.50;;;2.30;;
19209;SDS011;9738;51.654;14.238;2022-07-25T08:57:46;2.63;;;2.40;;
19209;SDS011;9738;51.654;14.238;2022-07-25T09:00:18;2.78;;;2.58;;
19209;SDS011;9738;51.654;14.238;2022-07-25T09:02:52;2.50;;;2.30;;
19209;SDS011;9738;51.654;14.238;2022-07-25T09:05:22;2.17;;;1.98;;
19209;SDS011;9738;51.654;14.238;2022-07-25T09:07:49;3.08;;;2.28;;
19209;SDS011;9738;51.654;14.238;2022-07-25T09:10:19;3.30;;;2.50;;
19209;SDS011;9738;51.654;14.238;2022-07-25T09:12:54;2.75;;;2.55;;
19209;SDS011;9738;51.654;14.238;2022-07-25T09:15:31;3.58;;;3.08;;
19209;SDS011;9738;51.654;14.238;2022-07-25T09:18:02;2.50;;;2.30;;
19209;SDS011;9738;51.654;14.238;2022-07-25T09:20:47;3.00;;;2.55;;
19209;SDS011;9738;51.654;14.238;2022-07-25T09:23:29;2.88;;;2.45;;
19209;SDS011;9738;51.654;14.238;2022-07-25T09:26:02;3.00;;;2.70;;
19209;SDS011;9738;51.654;14.238;2022-07-25T09:28:31;4.10;;;2.65;;
19209;SDS011;9738;51.654;14.238;2022-07-25T09:31:07;2.85;;;2.65;;
19209;SDS011;9738;51.654;14.238;2022-07-25T09:33:43;3.33;;;2.80;;
19209;SDS011;9738;51.654;14.238;2022-07-25T09:36:10;2.50;;;2.30;;
19209;SDS011;9738;51.654;14.238;2022-07-25T09:38:37;3.00;;;2.55;;
19209;SDS011;9738;51.654;14.238;2022-07-25T09:41:03;3.20;;;2.75;;
19209;SDS011;9738;51.654;14.238;2022-07-25T09:46:02;3.00;;;2.80;;
19209;SDS011;9738;51.654;14.238;2022-07-25T09:48:28;3.38;;;2.97;;
19209;SDS011;9738;51.654;14.238;2022-07-25T09:50:55;3.42;;;3.00;;
19209;SDS011;9738;51.654;14.238;2022-07-25T09:53:21;2.90;;;2.58;;
19209;SDS011;9738;51.654;14.238;2022-07-25T09:55:47;3.88;;;2.88;;
19209;SDS011;9738;51.654;14.238;2022-07-25T09:58:13;2.83;;;2.63;;
19209;SDS011;9738;51.654;14.238;2022-07-25T10:00:40;2.72;;;2.53;;
19209;SDS011;9738;51.654;14.238;2022-07-25T10:03:41;3.60;;;2.75;;
19209;SDS011;9738;51.654;14.238;2022-07-25T10:09:19;3.55;;;3.25;;
19209;SDS011;9738;51.654;14.238;2022-07-25T10:12:02;3.20;;;2.83;;
19209;SDS011;9738;51.654;14.238;2022-07-25T10:14:33;4.40;;;3.00;;
19209;SDS011;9738;51.654;14.238;2022-07-25T10:17:00;2.80;;;2.60;;
19209;SDS011;9738;51.654;14.238;2022-07-25T10:22:10;3.97;;;3.58;;
19209;SDS011;9738;51.654;14.238;2022-07-25T10:24:36;3.85;;;2.95;;
19209;SDS011;9738;51.654;14.238;2022-07-25T10:27:10;3.08;;;2.85;;
19209;SDS011;9738;51.654;14.238;2022-07-25T10:29:38;3.38;;;3.08;;
19209;SDS011;9738;51.654;14.238;2022-07-25T10:32:09;3.65;;;3.33;;
19209;SDS011;9738;51.654;14.238;2022-07-25T10:34:37;3.60;;;3.25;;
19209;SDS011;9738;51.654;14.238;2022-07-25T10:37:49;3.67;;;3.33;;
19209;SDS011;9738;51.654;14.238;2022-07-25T10:39:53;4.00;;;3.25;;
19209;SDS011;9738;51.654;14.238;2022-07-25T10:42:21;4.32;;;3.65;;
19209;SDS011;9738;51.654;14.238;2022-07-25T10:44:57;4.10;;;3.63;;
19209;SDS011;9738;51.654;14.238;2022-07-25T10:47:28;3.78;;;3.42;;
19209;SDS011;9738;51.654;14.238;2022-07-25T10:49:57;2.92;;;2.70;;
19209;SDS011;9738;51.654;14.238;2022-07-25T10:52:27;4.60;;;2.90;;
19209;SDS011;9738;51.654;14.238;2022-07-25T10:54:58;2.95;;;2.70;;
19209;SDS011;9738;51.654;14.238;2022-07-25T10:57:26;3.40;;;3.10;;
19209;SDS011;9738;51.654;14.238;2022-07-25T10:59:53;2.65;;;2.40;;
19209;SDS011;9738;51.654;14.238;2022-07-25T11:02:29;3.03;;;2.83;;
19209;SDS011;9738;51.654;14.238;2022-07-25T11:04:59;2.63;;;2.42;;
19209;SDS011;9738;51.654;14.238;2022-07-25T11:07:28;4.32;;;2.97;;
19209;SDS011;9738;51.654;14.238;2022-07-25T11:10:01;3.67;;;3.13;;
19209;SDS011;9738;51.654;14.238;2022-07-25T11:12:30;2.45;;;2.25;;
19209;SDS011;9738;51.654;14.238;2022-07-25T11:15:03;2.47;;;2.22;;
19209;SDS011;9738;51.654;14.238;2022-07-25T11:17:31;3.00;;;2.70;;
19209;SDS011;9738;51.654;14.238;2022-07-25T11:20:08;2.97;;;2.78;;
19209;SDS011;9738;51.654;14.238;2022-07-25T11:22:35;3.33;;;2.60;;
19209;SDS011;9738;51.654;14.238;2022-07-25T11:25:02;2.58;;;2.35;;
19209;SDS011;9738;51.654;14.238;2022-07-25T11:27:36;4.90;;;2.45;;
19209;SDS011;9738;51.654;14.238;2022-07-25T11:30:06;2.60;;;2.40;;
19209;SDS011;9738;51.654;14.238;2022-07-25T11:32:44;2.33;;;2.10;;
19209;SDS011;9738;51.654;14.238;2022-07-25T11:35:12;2.67;;;2.47;;
19209;SDS011;9738;51.654;14.238;2022-07-25T11:37:40;2.55;;;2.35;;
19209;SDS011;9738;51.654;14.238;2022-07-25T11:40:07;2.72;;;2.53;;
19209;SDS011;9738;51.654;14.238;2022-07-25T11:42:38;2.53;;;2.33;;
19209;SDS011;9738;51.654;14.238;2022-07-25T11:45:16;2.70;;;2.50;;
19209;SDS011;9738;51.654;14.238;2022-07-25T11:48:00;2.17;;;2.00;;
19209;SDS011;9738;51.654;14.238;2022-07-25T11:50:33;2.60;;;2.40;;
19209;SDS011;9738;51.654;14.238;2022-07-25T11:53:06;3.85;;;2.45;;
19209;SDS011;9738;51.654;14.238;2022-07-25T11:55:33;2.58;;;2.30;;
19209;SDS011;9738;51.654;14.238;2022-07-25T11:58:05;2.60;;;2.40;;
19209;SDS011;9738;51.654;14.238;2022-07-25T12:00:38;3.03;;;2.08;;
19209;SDS011;9738;51.654;14.238;2022-07-25T12:03:09;5.75;;;2.50;;
19209;SDS011;9738;51.654;14.238;2022-07-25T12:05:36;2.50;;;2.30;;
19209;SDS011;9738;51.654;14.238;2022-07-25T12:08:09;2.42;;;2.22;;
19209;SDS011;9738;51.654;14.238;2022-07-25T12:10:44;2.70;;;2.47;;
19209;SDS011;9738;51.654;14.238;2022-07-25T12:13:22;2.50;;;2.30;;
19209;SDS011;9738;51.654;14.238;2022-07-25T12:15:58;3.13;;;2.65;;
19209;SDS011;9738;51.654;14.238;2022-07-25T12:18:24;2.92;;;2.30;;
19209;SDS011;9738;51.654;14.238;2022-07-25T12:20:51;2.60;;;2.30;;
19209;SDS011;9738;51.654;14.238;2022-07-25T12:23:18;2.28;;;2.08;;
19209;SDS011;9738;51.654;14.238;2022-07-25T12:25:46;2.47;;;2.28;;
19209;SDS011;9738;51.654;14.238;2022-07-25T12:28:12;2.55;;;2.35;;
19209;SDS011;9738;51.654;14.238;2022-07-25T12:30:39;2.85;;;2.30;;
19209;SDS011;9738;51.654;14.238;2022-07-25T12:33:06;2.38;;;2.17;;
19209;SDS011;9738;51.654;14.238;2022-07-25T12:35:32;2.72;;;2.53;;
19209;SDS011;9738;51.654;14.238;2022-07-25T12:37:59;3.22;;;2.67;;
19209;SDS011;9738;51.654;14.238;2022-07-25T12:40:25;2.80;;;2.35;;
19209;SDS011;9738;51.654;14.238;2022-07-25T12:42:51;3.08;;;2.60;;
19209;SDS011;9738;51.654;14.238;2022-07-25T12:45:17;2.38;;;2.13;;
19209;SDS011;9738;51.654;14.238;2022-07-25T12:47:44;2.50;;;2.30;;
19209;SDS011;9738;51.654;14.238;2022-07-25T12:50:11;3.40;;;2.42;;
19209;SDS011;9738;51.654;14.238;2022-07-25T12:52:38;2.92;;;2.63;;
19209;SDS011;9738;51.654;14.238;2022-07-25T12:55:06;2.55;;;2.35;;
19209;SDS011;9738;51.654;14.238;2022-07-25T12:57:33;3.83;;;2.65;;
19209;SDS011;9738;51.654;14.238;2022-07-25T13:00:02;3.20;;;2.97;;
19209;SDS011;9738;51.654;14.238;2022-07-25T13:02:29;2.75;;;2.45;;
19209;SDS011;9738;51.654;14.238;2022-07-25T13:04:54;3.10;;;2.80;;
19209;SDS011;9738;51.654;14.238;2022-07-25T13:07:21;2.83;;;2.60;;
19209;SDS011;9738;51.654;14.238;2022-07-25T13:09:46;2.58;;;2.38;;
19209;SDS011;9738;51.654;14.238;2022-07-25T13:12:12;2.90;;;2.60;;
19209;SDS011;9738;51.654;14.238;2022-07-25T13:14:38;3.42;;;2.80;;
19209;SDS011;9738;51.654;14.238;2022-07-25T13:17:04;3.08;;;2.72;;
19209;SDS011;9738;51.654;14.238;2022-07-25T13:19:30;2.70;;;2.50;;
19209;SDS011;9738;51.654;14.238;2022-07-25T13:21:56;3.47;;;2.67;;
19209;SDS011;9738;51.654;14.238;2022-07-25T13:24:22;2.45;;;2.25;;
19209;SDS011;9738;51.654;14.238;2022-07-25T13:26:47;3.35;;;2.45;;
19209;SDS011;9738;51.654;14.238;2022-07-25T13:29:14;2.50;;;2.30;;
19209;SDS011;9738;51.654;14.238;2022-07-25T13:31:40;2.85;;;2.55;;
19209;SDS011;9738;51.654;14.238;2022-07-25T13:34:06;2.80;;;2.60;;
19209;SDS011;9738;51.654;14.238;2022-07-25T13:36:34;2.75;;;2.55;;
19209;SDS011;9738;51.654;14.238;2022-07-25T13:39:01;2.38;;;2.17;;
19209;SDS011;9738;51.654;14.238;2022-07-25T13:41:27;2.85;;;2.60;;
19209;SDS011;9738;51.654;14.238;2022-07-25T13:43:54;2.70;;;2.50;;
19209;SDS011;9738;51.654;14.238;2022-07-25T13:46:20;4.90;;;2.50;;
19209;SDS011;9738;51.654;14.238;2022-07-25T13:48:45;2.47;;;2.28;;
19209;SDS011;9738;51.654;14.238;2022-07-25T13:51:12;2.83;;;2.60;;
19209;SDS011;9738;51.654;14.238;2022-07-25T13:53:38;2.70;;;2.50;;
19209;SDS011;9738;51.654;14.238;2022-07-25T13:56:04;2.63;;;2.42;;
19209;SDS011;9738;51.654;14.238;2022-07-25T13:58:31;2.35;;;2.15;;
19209;SDS011;9738;51.654;14.238;2022-07-25T14:00:57;2.83;;;2.63;;
19209;SDS011;9738;51.654;14.238;2022-07-25T14:03:23;3.00;;;2.55;;
19209;SDS011;9738;51.654;14.238;2022-07-25T14:05:49;3.53;;;2.45;;
19209;SDS011;9738;51.654;14.238;2022-07-25T14:08:15;2.63;;;2.42;;
19209;SDS011;9738;51.654;14.238;2022-07-25T14:10:41;2.58;;;2.10;;
19209;SDS011;9738;51.654;14.238;2022-07-25T14:13:07;2.50;;;2.25;;
19209;SDS011;9738;51.654;14.238;2022-07-25T14:15:33;2.28;;;2.08;;
19209;SDS011;9738;51.654;14.238;2022-07-25T14:17:58;2.20;;;2.00;;
19209;SDS011;9738;51.654;14.238;2022-07-25T14:20:25;2.65;;;2.45;;
19209;SDS011;9738;51.654;14.238;2022-07-25T14:22:50;4.90;;;2.20;;
19209;SDS011;9738;51.654;14.238;2022-07-25T14:25:16;3.40;;;2.10;;
19209;SDS011;9738;51.654;14.238;2022-07-25T14:27:42;2.42;;;2.22;;
19209;SDS011;9738;51.654;14.238;2022-07-25T14:30:09;2.40;;;2.20;;
19209;SDS011;9738;51.654;14.238;2022-07-25T14:32:35;2.53;;;2.33;;
19209;SDS011;9738;51.654;14.238;2022-07-25T14:35:02;2.60;;;2.40;;
19209;SDS011;9738;51.654;14.238;2022-07-25T14:37:30;2.85;;;2.25;;
19209;SDS011;9738;51.654;14.238;2022-07-25T14:39:57;2.83;;;2.10;;
19209;SDS011;9738;51.654;14.238;2022-07-25T14:42:24;2.78;;;2.33;;
19209;SDS011;9738;51.654;14.238;2022-07-25T14:44:49;2.35;;;2.15;;
19209;SDS011;9738;51.654;14.238;2022-07-25T14:47:15;2.63;;;2.33;;
19209;SDS011;9738;51.654;14.238;2022-07-25T14:49:42;3.88;;;2.60;;
19209;SDS011;9738;51.654;14.238;2022-07-25T14:52:08;2.38;;;2.17;;
19209;SDS011;9738;51.654;14.238;2022-07-25T14:54:35;2.85;;;2.65;;
19209;SDS011;9738;51.654;14.238;2022-07-25T14:57:02;2.28;;;2.08;;